createdAt,value
2023-01-30T00:01:45.294Z,99899.41
2023-01-30T00:04:17.043Z,99903.13
2023-01-30T00:06:45.408Z,99913.31
2023-01-30T00:09:15.959Z,99901.59
2023-01-30T00:11:44.013Z,99910.22
2023-01-30T00:14:12.081Z,99902.97
2023-01-30T00:16:40.194Z,99902.19
2023-01-30T00:19:08.495Z,99898.31
2023-01-30T00:21:36.678Z,99898.91
2023-01-30T00:24:05.379Z,99905.88
2023-01-30T00:26:35.136Z,99899.22
2023-01-30T00:29:03.236Z,99895.25
2023-01-30T00:31:31.297Z,99894.13
2023-01-30T00:33:59.458Z,99891.47
2023-01-30T00:36:27.569Z,99887.91
2023-01-30T00:38:58.352Z,99894.38
2023-01-30T00:41:46.454Z,99889.88
2023-01-30T00:44:33.815Z,99896.69
2023-01-30T00:47:09.093Z,99897.47
2023-01-30T00:49:37.936Z,99899.09
2023-01-30T00:52:06.821Z,99893.94
2023-01-30T00:54:35.194Z,99891.34
2023-01-30T00:57:03.322Z,99891.06
2023-01-30T00:59:32.898Z,99892.72
2023-01-30T01:02:01.123Z,99891.47
2023-01-30T01:04:29.300Z,99890.81
2023-01-30T01:06:57.364Z,99887.06
2023-01-30T01:09:25.478Z,99887.66
2023-01-30T01:11:53.584Z,99887.94
2023-01-30T01:14:21.640Z,99878.53
2023-01-30T01:16:51.128Z,99868.31
2023-01-30T01:19:19.251Z,99879.69
2023-01-30T01:21:47.403Z,99879.19
2023-01-30T01:24:17.083Z,99876.00
2023-01-30T01:26:46.031Z,99872.47
2023-01-30T01:29:15.760Z,99867.09
2023-01-30T01:31:44.852Z,99861.75
2023-01-30T01:34:14.462Z,99866.25
2023-01-30T01:36:53.091Z,99861.09
2023-01-30T01:39:22.439Z,99860.25
2023-01-30T01:41:49.475Z,99862.13
2023-01-30T01:44:18.230Z,99860.81
2023-01-30T01:46:51.719Z,99859.28
2023-01-30T01:49:28.935Z,99857.03
2023-01-30T01:52:03.463Z,99853.94
2023-01-30T01:54:36.205Z,99858.22
2023-01-30T01:57:08.092Z,99861.69
2023-01-30T01:59:41.991Z,99864.56
2023-01-30T02:02:14.074Z,99856.97
2023-01-30T02:05:06.940Z,99857.03
2023-01-30T02:07:39.587Z,99857.84
2023-01-30T02:10:09.932Z,99850.47
2023-01-30T02:12:39.630Z,99852.50
2023-01-30T02:15:09.094Z,99855.34
2023-01-30T02:17:37.184Z,99851.34
2023-01-30T02:20:17.839Z,99852.94
2023-01-30T02:23:18.062Z,99847.59
2023-01-30T02:26:25.429Z,99839.28
2023-01-30T02:29:18.767Z,99845.41
2023-01-30T02:31:53.954Z,99840.72
2023-01-30T02:34:39.991Z,99838.16
2023-01-30T02:37:18.618Z,99845.78
2023-01-30T02:40:00.600Z,99842.69
2023-01-30T02:42:38.302Z,99839.41
2023-01-30T02:45:13.587Z,99835.78
2023-01-30T02:47:47.716Z,99843.91
2023-01-30T02:50:20.677Z,99832.69
2023-01-30T02:52:49.755Z,99835.38
2023-01-30T02:55:21.680Z,99840.41
2023-01-30T02:57:49.837Z,99838.63
2023-01-30T03:00:24.152Z,99834.94
2023-01-30T03:03:14.622Z,99836.22
2023-01-30T03:06:09.739Z,99821.03
2023-01-30T03:08:46.982Z,99830.75
2023-01-30T03:11:15.163Z,99824.59
2023-01-30T03:13:52.796Z,99824.16
2023-01-30T03:16:26.564Z,99825.25
2023-01-30T03:18:56.344Z,99823.16
2023-01-30T03:21:24.386Z,99824.59
2023-01-30T03:23:52.454Z,99821.78
2023-01-30T03:26:24.304Z,99817.28
2023-01-30T03:28:54.142Z,99809.25
2023-01-30T03:31:22.544Z,99808.66
2023-01-30T03:33:51.498Z,99809.66
2023-01-30T03:36:21.010Z,99806.84
2023-01-30T03:38:49.144Z,99805.63
2023-01-30T03:41:17.269Z,99802.94
2023-01-30T03:43:45.360Z,99808.16
2023-01-30T03:46:13.499Z,99810.78
2023-01-30T03:48:41.925Z,99812.44
2023-01-30T03:51:09.974Z,99802.59
2023-01-30T03:53:39.467Z,99813.59
2023-01-30T03:56:07.730Z,99810.84
2023-01-30T03:58:36.052Z,99816.34
2023-01-30T04:01:04.234Z,99812.59
2023-01-30T04:03:32.411Z,99818.94
2023-01-30T04:06:00.739Z,99814.88
2023-01-30T04:08:28.934Z,99807.16
2023-01-30T04:10:58.537Z,99802.88
2023-01-30T04:13:26.701Z,99808.03
2023-01-30T04:15:54.742Z,99806.44
2023-01-30T04:18:23.379Z,99805.06
2023-01-30T04:20:51.537Z,99806.00
2023-01-30T04:23:25.029Z,99798.47
2023-01-30T04:25:53.121Z,99802.53
2023-01-30T04:28:22.587Z,99808.88
2023-01-30T04:30:50.791Z,99805.41
2023-01-30T04:33:19.015Z,99806.22
2023-01-30T04:35:53.375Z,99803.31
2023-01-30T04:38:22.265Z,99797.19
2023-01-30T04:40:50.637Z,99799.00
2023-01-30T04:43:18.880Z,99806.78
2023-01-30T04:45:49.425Z,99807.38
2023-01-30T04:48:18.542Z,99808.53
2023-01-30T04:50:49.831Z,99802.69
2023-01-30T04:53:18.817Z,99802.47
2023-01-30T04:55:47.727Z,99804.94
2023-01-30T04:58:16.178Z,99801.81
2023-01-30T05:00:44.213Z,99799.72
2023-01-30T05:03:13.684Z,99797.13
2023-01-30T05:05:42.089Z,99797.91
2023-01-30T05:08:11.031Z,99797.69
2023-01-30T05:10:39.447Z,99805.59
2023-01-30T05:13:07.802Z,99805.09
2023-01-30T05:15:36.193Z,99797.41
2023-01-30T05:18:04.327Z,99807.31
2023-01-30T05:20:33.781Z,99803.84
2023-01-30T05:23:02.124Z,99804.94
2023-01-30T05:25:30.391Z,99804.56
2023-01-30T05:27:58.390Z,99801.25
2023-01-30T05:30:26.518Z,99806.53
2023-01-30T05:32:54.635Z,99796.97
2023-01-30T05:35:22.891Z,99801.16
2023-01-30T05:37:53.413Z,99804.63
2023-01-30T05:40:21.573Z,99802.16
2023-01-30T05:42:49.631Z,99809.91
2023-01-30T05:45:18.027Z,99801.75
2023-01-30T05:47:46.192Z,99805.81
2023-01-30T05:50:14.491Z,99800.72
2023-01-30T05:52:44.933Z,99800.91
2023-01-30T05:55:14.542Z,99805.66
2023-01-30T05:57:42.712Z,99797.13
2023-01-30T06:00:12.149Z,99805.94
2023-01-30T06:02:40.831Z,99799.50
2023-01-30T06:05:09.908Z,99804.84
2023-01-30T06:07:38.042Z,99808.94
2023-01-30T06:12:53.610Z,99812.59
2023-01-30T06:15:21.756Z,99821.00
2023-01-30T06:17:49.863Z,99812.72
2023-01-30T06:20:18.127Z,99820.47
2023-01-30T06:22:46.110Z,99817.44
2023-01-30T06:25:14.288Z,99817.66
2023-01-30T06:27:43.429Z,99818.53
2023-01-30T06:30:14.316Z,99816.13
2023-01-30T06:32:42.905Z,99823.38
2023-01-30T06:35:11.044Z,99817.88
2023-01-30T06:37:39.602Z,99822.44
2023-01-30T06:40:12.456Z,99819.25
2023-01-30T06:42:40.931Z,99822.00
2023-01-30T06:45:10.145Z,99817.16
2023-01-30T06:47:47.006Z,99824.03
2023-01-30T06:50:16.295Z,99825.25
2023-01-30T06:52:45.544Z,99822.84
2023-01-30T06:55:16.898Z,99822.28
2023-01-30T06:57:46.006Z,99831.59
2023-01-30T07:00:17.475Z,99822.56
2023-01-30T07:02:47.421Z,99818.00
2023-01-30T07:05:15.887Z,99822.28
2023-01-30T07:07:44.388Z,99825.84
2023-01-30T07:10:13.244Z,99832.69
2023-01-30T07:12:41.398Z,99829.44
2023-01-30T07:15:10.494Z,99829.06
2023-01-30T07:17:38.688Z,99827.03
2023-01-30T07:20:14.982Z,99825.66
2023-01-30T07:22:43.366Z,99825.91
2023-01-30T07:25:11.736Z,99833.03
2023-01-30T07:27:41.329Z,99828.00
2023-01-30T07:30:10.835Z,99832.84
2023-01-30T07:32:39.532Z,99837.59
2023-01-30T07:35:10.316Z,99837.31
2023-01-30T07:37:38.570Z,99825.09
2023-01-30T07:40:09.219Z,99835.44
2023-01-30T07:42:39.476Z,99833.28
2023-01-30T07:45:09.035Z,99831.00
2023-01-30T07:47:37.293Z,99830.72
2023-01-30T07:50:06.291Z,99826.09
2023-01-30T07:52:35.744Z,99825.41
2023-01-30T07:55:03.828Z,99827.38
2023-01-30T07:57:31.932Z,99827.06
2023-01-30T08:00:00.138Z,99818.84
2023-01-30T08:02:28.298Z,99817.16
2023-01-30T08:04:56.625Z,99814.19
2023-01-30T08:07:25.062Z,99816.88
2023-01-30T08:10:01.348Z,99821.94
2023-01-30T08:12:45.707Z,99819.75
2023-01-30T08:15:15.774Z,99817.88
2023-01-30T08:17:44.053Z,99819.78
2023-01-30T08:20:18.962Z,99820.88
2023-01-30T08:22:47.361Z,99813.44
2023-01-30T08:25:38.521Z,99810.44
2023-01-30T08:28:17.141Z,99817.69
2023-01-30T08:30:51.005Z,99817.41
2023-01-30T08:33:19.606Z,99816.19
2023-01-30T08:35:47.616Z,99812.53
2023-01-30T08:38:15.781Z,99809.66
2023-01-30T08:40:45.349Z,99806.38
2023-01-30T08:43:13.403Z,99799.38
2023-01-30T08:45:41.554Z,99808.31
2023-01-30T08:48:09.750Z,99809.31
2023-01-30T08:50:37.937Z,99807.78
2023-01-30T08:53:09.253Z,99806.50
2023-01-30T08:55:37.345Z,99802.56
2023-01-30T08:58:06.831Z,99806.22
2023-01-30T09:00:34.956Z,99793.69
2023-01-30T09:03:03.378Z,99792.72
2023-01-30T09:05:31.539Z,99800.25
2023-01-30T09:07:59.778Z,99794.28
2023-01-30T09:10:29.708Z,99789.63
2023-01-30T09:12:59.109Z,99793.41
2023-01-30T09:15:28.633Z,99785.66
2023-01-30T09:17:56.748Z,99787.06
2023-01-30T09:20:25.885Z,99778.25
2023-01-30T09:22:54.082Z,99775.78
2023-01-30T09:25:22.141Z,99780.13
2023-01-30T09:27:50.869Z,99770.28
2023-01-30T09:30:20.484Z,99773.09
2023-01-30T09:32:50.805Z,99760.38
2023-01-30T09:35:19.259Z,99760.59
2023-01-30T09:37:51.080Z,99752.91
2023-01-30T09:40:23.636Z,99751.53
2023-01-30T09:43:24.255Z,99746.47
2023-01-30T09:46:06.627Z,99741.13
2023-01-30T09:48:45.442Z,99736.94
2023-01-30T09:51:27.192Z,99732.06
2023-01-30T09:54:12.123Z,99730.78
2023-01-30T09:56:40.401Z,99730.59
2023-01-30T09:59:15.695Z,99723.53
2023-01-30T10:01:54.774Z,99724.13
2023-01-30T10:04:33.135Z,99713.81
2023-01-30T10:07:19.203Z,99702.47
2023-01-30T10:09:58.427Z,99696.78
2023-01-30T10:12:44.337Z,99695.94
2023-01-30T10:15:34.533Z,99678.66
2023-01-30T10:18:31.526Z,99684.97
2023-01-30T10:21:11.081Z,99676.44
2023-01-30T10:23:54.709Z,99680.72
2023-01-30T10:26:27.083Z,99661.06
2023-01-30T10:29:07.278Z,99658.03
2023-01-30T10:31:44.490Z,99648.97
2023-01-30T10:34:17.977Z,99652.16
2023-01-30T10:36:55.817Z,99646.03
2023-01-30T10:39:33.477Z,99636.56
2023-01-30T10:42:10.924Z,99636.34
2023-01-30T10:44:41.336Z,99623.25
2023-01-30T10:47:29.783Z,99621.25
2023-01-30T10:50:16.398Z,99605.47
2023-01-30T10:52:54.095Z,99597.91
2023-01-30T10:55:37.253Z,99588.50
2023-01-30T10:58:15.475Z,99580.47
2023-01-30T11:00:48.119Z,99581.13
2023-01-30T11:03:23.669Z,99583.13
2023-01-30T11:05:54.821Z,99572.91
2023-01-30T11:08:27.623Z,99573.06
2023-01-30T11:10:57.673Z,99560.47
2023-01-30T11:13:30.671Z,99558.94
2023-01-30T11:16:01.974Z,99552.19
2023-01-30T11:21:32.056Z,99532.91
2023-01-30T11:24:19.462Z,99531.53
2023-01-30T11:26:48.756Z,99529.75
2023-01-30T11:29:26.410Z,99534.03
2023-01-30T11:31:55.680Z,99521.56
2023-01-30T11:34:25.707Z,99514.91
2023-01-30T11:36:54.240Z,99505.91
2023-01-30T11:39:30.415Z,99511.63
2023-01-30T11:42:04.878Z,99509.69
2023-01-30T11:44:35.292Z,99488.03
2023-01-30T11:47:08.207Z,99490.38
2023-01-30T11:49:45.400Z,99492.09
2023-01-30T11:52:22.698Z,99479.34
2023-01-30T11:54:53.785Z,99482.19
2023-01-30T11:57:22.371Z,99476.38
2023-01-30T11:59:57.112Z,99469.06
2023-01-30T12:02:30.024Z,99458.78
2023-01-30T12:05:01.507Z,99463.06
2023-01-30T12:07:31.993Z,99461.66
2023-01-30T12:10:01.957Z,99459.56
2023-01-30T12:12:33.272Z,99445.69
2023-01-30T12:15:25.210Z,99444.28
2023-01-30T12:18:02.561Z,99445.84
2023-01-30T12:20:48.218Z,99435.25
2023-01-30T12:23:26.007Z,99441.88
2023-01-30T12:26:02.564Z,99431.72
2023-01-30T12:28:38.793Z,99434.28
2023-01-30T12:31:13.219Z,99428.78
2023-01-30T12:33:41.859Z,99421.97
2023-01-30T12:36:21.512Z,99413.91
2023-01-30T12:38:59.184Z,99424.97
2023-01-30T12:41:45.993Z,99416.63
2023-01-30T12:44:41.589Z,99412.69
2023-01-30T12:47:24.122Z,99419.59
2023-01-30T12:50:18.813Z,99419.13
2023-01-30T12:53:16.179Z,99405.88
2023-01-30T12:55:55.734Z,99399.09
2023-01-30T12:58:30.981Z,99395.63
2023-01-30T13:01:10.220Z,99386.78
2023-01-30T13:03:45.913Z,99387.59
2023-01-30T13:06:36.679Z,99383.75
2023-01-30T13:09:20.626Z,99386.28
2023-01-30T13:12:00.746Z,99380.63
2023-01-30T13:14:37.893Z,99379.50
2023-01-30T13:17:25.994Z,99373.50
2023-01-30T13:20:01.028Z,99374.47
2023-01-30T13:22:37.201Z,99368.13
2023-01-30T13:25:16.008Z,99369.25
2023-01-30T13:27:51.759Z,99364.53
2023-01-30T13:30:25.334Z,99364.53
2023-01-30T13:32:56.744Z,99365.47
2023-01-30T13:35:30.622Z,99360.44
2023-01-30T13:38:00.380Z,99366.38
2023-01-30T13:40:33.111Z,99362.75
2023-01-30T13:43:07.309Z,99363.84
2023-01-30T13:45:41.925Z,99356.41
2023-01-30T13:48:24.223Z,99350.41
2023-01-30T13:51:16.662Z,99349.94
2023-01-30T13:53:52.155Z,99350.09
2023-01-30T13:56:44.753Z,99358.81
2023-01-30T13:59:28.015Z,99350.75
2023-01-30T14:02:20.782Z,99347.06
2023-01-30T14:04:53.969Z,99341.88
2023-01-30T14:07:29.605Z,99337.16
2023-01-30T14:10:13.102Z,99348.47
2023-01-30T14:12:44.477Z,99350.31
2023-01-30T14:15:25.591Z,99352.34
2023-01-30T14:18:05.575Z,99352.84
2023-01-30T14:20:35.636Z,99343.00
2023-01-30T14:23:07.797Z,99346.44
2023-01-30T14:25:48.618Z,99341.69
2023-01-30T14:28:51.002Z,99343.44
2023-01-30T14:31:52.730Z,99337.09
2023-01-30T14:34:50.352Z,99336.81
2023-01-30T14:37:46.801Z,99326.72
2023-01-30T14:40:36.380Z,99330.75
2023-01-30T14:43:38.279Z,99329.78
2023-01-30T14:46:08.937Z,99319.06
2023-01-30T14:48:44.471Z,99322.41
2023-01-30T14:51:26.120Z,99315.41
2023-01-30T14:53:57.839Z,99329.25
2023-01-30T14:56:50.103Z,99330.94
2023-01-30T14:59:25.854Z,99326.63
2023-01-30T15:02:09.915Z,99337.31
2023-01-30T15:04:45.965Z,99335.88
2023-01-30T15:07:20.722Z,99329.03
2023-01-30T15:09:54.795Z,99327.78
2023-01-30T15:12:54.335Z,99326.50
2023-01-30T15:15:27.998Z,99323.50
2023-01-30T15:18:20.602Z,99325.22
2023-01-30T15:21:06.842Z,99329.03
2023-01-30T15:24:05.361Z,99327.19
2023-01-30T15:26:47.958Z,99324.00
2023-01-30T15:29:50.637Z,99313.41
2023-01-30T15:32:30.858Z,99318.94
2023-01-30T15:35:00.799Z,99317.31
2023-01-30T15:37:35.170Z,99323.38
2023-01-30T15:40:22.964Z,99317.88
2023-01-30T15:42:57.214Z,99324.63
2023-01-30T15:45:35.489Z,99316.19
2023-01-30T15:48:17.902Z,99317.03
2023-01-30T15:50:50.629Z,99324.09
2023-01-30T15:53:19.193Z,99322.69
2023-01-30T15:55:49.266Z,99319.13
2023-01-30T15:58:21.945Z,99321.81
2023-01-30T16:00:53.019Z,99325.47
2023-01-30T16:03:25.459Z,99326.88
2023-01-30T16:05:56.322Z,99316.00
2023-01-30T16:08:27.171Z,99318.59
2023-01-30T16:11:00.777Z,99322.44
2023-01-30T16:13:30.338Z,99313.53
2023-01-30T16:16:03.187Z,99317.38
2023-01-30T16:18:37.499Z,99310.25
2023-01-30T16:21:08.900Z,99324.81
2023-01-30T16:23:40.100Z,99319.47
2023-01-30T16:26:17.481Z,99319.97
2023-01-30T16:28:46.266Z,99313.94
2023-01-30T16:31:14.939Z,99314.66
2023-01-30T16:33:43.423Z,99322.19
2023-01-30T16:36:34.201Z,99312.34
2023-01-30T16:39:03.410Z,99306.31
2023-01-30T16:41:35.007Z,99313.84
2023-01-30T16:44:11.770Z,99304.34
2023-01-30T16:46:58.772Z,99296.81
2023-01-30T16:49:39.663Z,99306.22
2023-01-30T16:52:16.634Z,99297.53
2023-01-30T16:54:48.397Z,99295.63
2023-01-30T16:57:36.392Z,99288.31
2023-01-30T17:00:22.441Z,99290.47
2023-01-30T17:02:55.489Z,99291.69
2023-01-30T17:05:25.672Z,99287.44
2023-01-30T17:07:59.071Z,99288.13
2023-01-30T17:10:53.510Z,99292.47
2023-01-30T17:13:38.242Z,99286.75
2023-01-30T17:16:33.595Z,99283.06
2023-01-30T17:19:02.148Z,99282.00
2023-01-30T17:21:32.924Z,99281.59
2023-01-30T17:24:03.762Z,99282.50
2023-01-30T17:26:33.627Z,99279.44
2023-01-30T17:29:03.285Z,99276.84
2023-01-30T17:31:31.559Z,99272.28
2023-01-30T17:34:00.023Z,99272.81
2023-01-30T17:36:30.510Z,99261.41
2023-01-30T17:39:00.112Z,99268.16
2023-01-30T17:41:31.036Z,99266.34
2023-01-30T17:43:59.549Z,99269.34
2023-01-30T17:46:35.376Z,99266.25
2023-01-30T17:49:03.674Z,99259.22
2023-01-30T17:51:31.849Z,99255.28
2023-01-30T17:54:00.106Z,99246.38
2023-01-30T17:56:32.684Z,99249.25
2023-01-30T17:59:00.874Z,99243.81
2023-01-30T18:01:30.415Z,99242.13
2023-01-30T18:03:58.578Z,99245.56
2023-01-30T18:06:29.903Z,99247.97
2023-01-30T18:08:57.955Z,99242.19
2023-01-30T18:11:26.132Z,99235.94
2023-01-30T18:13:54.328Z,99231.22
2023-01-30T18:16:25.803Z,99231.72
2023-01-30T18:18:56.052Z,99233.19
2023-01-30T18:21:24.167Z,99231.03
2023-01-30T18:23:52.797Z,99232.19
2023-01-30T18:26:21.087Z,99235.25
2023-01-30T18:28:49.512Z,99234.66
2023-01-30T18:31:18.489Z,99238.50
2023-01-30T18:33:47.525Z,99233.06
2023-01-30T18:36:19.797Z,99234.69
2023-01-30T18:38:48.707Z,99235.59
2023-01-30T18:41:19.566Z,99235.38
2023-01-30T18:43:49.391Z,99235.38
2023-01-30T18:46:19.333Z,99235.97
2023-01-30T18:48:48.174Z,99227.31
2023-01-30T18:51:20.453Z,99228.09
2023-01-30T18:53:50.878Z,99233.88
2023-01-30T18:56:21.795Z,99224.56
2023-01-30T18:58:52.361Z,99228.09
2023-01-30T19:01:22.474Z,99227.31
2023-01-30T19:03:53.590Z,99222.28
2023-01-30T19:06:23.296Z,99214.38
2023-01-30T19:08:51.705Z,99212.78
2023-01-30T19:11:39.269Z,99218.91
2023-01-30T19:14:08.819Z,99222.88
2023-01-30T19:16:39.585Z,99210.19
2023-01-30T19:19:09.467Z,99218.28
2023-01-30T19:21:40.017Z,99217.19
2023-01-30T19:24:12.518Z,99215.81
2023-01-30T19:26:41.247Z,99215.31
2023-01-30T19:29:09.933Z,99206.91
2023-01-30T19:31:39.696Z,99210.63
2023-01-30T19:34:08.082Z,99204.88
2023-01-30T19:36:52.520Z,99208.06
2023-01-30T19:39:24.367Z,99203.53
2023-01-30T19:41:52.630Z,99195.53
2023-01-30T19:44:21.212Z,99198.19
2023-01-30T19:47:17.439Z,99196.09
2023-01-30T19:49:45.865Z,99190.25
2023-01-30T19:52:15.475Z,99187.09
2023-01-30T19:54:44.196Z,99187.41
2023-01-30T19:57:12.575Z,99189.69
2023-01-30T19:59:41.021Z,99184.34
2023-01-30T20:02:11.372Z,99181.88
2023-01-30T20:04:40.978Z,99175.38
2023-01-30T20:07:09.039Z,99176.66
2023-01-30T20:09:38.577Z,99171.31
2023-01-30T20:12:07.361Z,99176.34
2023-01-30T20:14:35.824Z,99166.47
2023-01-30T20:17:04.005Z,99177.38
2023-01-30T20:19:32.212Z,99169.84
2023-01-30T20:22:02.598Z,99170.09
2023-01-30T20:24:31.120Z,99165.31
2023-01-30T20:27:01.285Z,99160.34
2023-01-30T20:29:30.391Z,99162.34
2023-01-30T20:31:59.812Z,99162.22
2023-01-30T20:34:28.062Z,99151.47
2023-01-30T20:36:56.384Z,99152.16
2023-01-30T20:39:24.628Z,99145.22
2023-01-30T20:41:54.058Z,99136.16
2023-01-30T20:44:24.526Z,99135.34
2023-01-30T20:46:53.211Z,99135.84
2023-01-30T20:49:22.952Z,99132.31
2023-01-30T20:51:53.099Z,99132.81
2023-01-30T20:54:24.439Z,99119.19
2023-01-30T20:56:54.400Z,99122.25
2023-01-30T20:59:27.608Z,99122.44
2023-01-30T21:01:56.012Z,99108.81
2023-01-30T21:04:25.539Z,99099.22
2023-01-30T21:06:53.897Z,99111.00
2023-01-30T21:09:23.756Z,99103.19
2023-01-30T21:11:54.993Z,99092.91
2023-01-30T21:14:26.579Z,99094.31
2023-01-30T21:16:55.253Z,99092.09
2023-01-30T21:19:23.554Z,99089.56
2023-01-30T21:21:54.297Z,99085.00
2023-01-30T21:24:24.919Z,99085.00
2023-01-30T21:26:53.549Z,99074.09
2023-01-30T21:29:23.622Z,99074.94
2023-01-30T21:31:53.683Z,99076.69
2023-01-30T21:34:22.025Z,99079.16
2023-01-30T21:37:04.012Z,99074.25
2023-01-30T21:39:49.757Z,99071.56
2023-01-30T21:42:35.259Z,99068.31
2023-01-30T21:45:05.156Z,99065.63
2023-01-30T21:47:34.769Z,99064.53
2023-01-30T21:50:02.791Z,99065.41
2023-01-30T21:52:33.383Z,99071.56
2023-01-30T21:55:01.737Z,99071.66
2023-01-30T21:57:29.828Z,99067.41
2023-01-30T21:59:58.073Z,99071.16
2023-01-30T22:02:26.182Z,99064.44
2023-01-30T22:04:55.921Z,99060.50
2023-01-30T22:07:24.085Z,99061.00
2023-01-30T22:09:52.244Z,99064.72
2023-01-30T22:12:20.692Z,99071.75
2023-01-30T22:14:48.871Z,99077.69
2023-01-30T22:17:17.534Z,99061.25
2023-01-30T22:19:46.443Z,99057.59
2023-01-30T22:22:16.347Z,99058.56
2023-01-30T22:24:44.331Z,99059.84
2023-01-30T22:27:12.463Z,99058.72
2023-01-30T22:29:40.887Z,99055.94
2023-01-30T22:32:08.995Z,99053.28
2023-01-30T22:34:37.080Z,99051.50
2023-01-30T22:37:05.272Z,99049.19
2023-01-30T22:39:34.776Z,99043.53
2023-01-30T22:42:02.882Z,99042.50
2023-01-30T22:44:31.391Z,99045.06
2023-01-30T22:46:59.621Z,99051.69
2023-01-30T22:49:27.782Z,99045.13
2023-01-30T22:51:55.847Z,99046.00
2023-01-30T22:54:25.046Z,99045.63
2023-01-30T22:56:54.644Z,99045.56
2023-01-30T22:59:22.985Z,99038.03
2023-01-30T23:01:52.088Z,99034.91
2023-01-30T23:04:21.421Z,99039.84
2023-01-30T23:06:51.493Z,99040.50
2023-01-30T23:09:21.648Z,99035.81
2023-01-30T23:12:05.515Z,99032.81
2023-01-30T23:14:35.727Z,99030.91
2023-01-30T23:17:25.534Z,99030.25
2023-01-30T23:19:52.669Z,99030.25
2023-01-30T23:22:20.819Z,99030.72
2023-01-30T23:24:49.125Z,99031.38
2023-01-30T23:27:17.362Z,99014.41
2023-01-30T23:29:46.961Z,99011.28
2023-01-30T23:32:18.315Z,99008.34
2023-01-30T23:34:46.833Z,99014.66
2023-01-30T23:37:15.295Z,99009.34
2023-01-30T23:39:43.370Z,99016.44
2023-01-30T23:42:11.421Z,99007.03
2023-01-30T23:44:40.191Z,99009.41
2023-01-30T23:47:09.774Z,99021.03
2023-01-30T23:49:38.629Z,99020.88
2023-01-30T23:52:07.234Z,99023.06
2023-01-30T23:54:35.391Z,99012.38
2023-01-30T23:57:03.855Z,99012.38
2023-01-30T23:59:32.074Z,99005.84
